createdAt,value
2023-03-29T00:01:13.078Z,97840.59
2023-03-29T00:11:35.599Z,97848.69
2023-03-29T00:21:37.908Z,97830.22
2023-03-29T00:31:40.311Z,97827.38
2023-03-29T05:05:09.151Z,97654.13
2023-03-29T05:15:11.840Z,97651.81
2023-03-29T05:25:14.381Z,97629.53
2023-03-29T05:35:16.882Z,97630.03
2023-03-29T05:45:20.567Z,97614.09
2023-03-29T05:55:23.960Z,97611.59
2023-03-29T06:05:26.786Z,97581.28
2023-03-29T06:15:30.438Z,97582.81
2023-03-29T06:25:33.204Z,97571.31
2023-03-29T06:35:37.248Z,97553.69
2023-03-29T06:45:40.399Z,97534.91
2023-03-29T06:55:42.984Z,97532.13
2023-03-29T07:05:45.508Z,97535.38
2023-03-29T07:15:47.912Z,97536.88
2023-03-29T07:25:51.480Z,97525.25
2023-03-29T07:35:53.872Z,97545.78
2023-03-29T07:45:59.054Z,97533.22
2023-03-29T07:56:01.979Z,97503.91
2023-03-29T08:06:05.049Z,97497.97
2023-03-29T08:16:09.125Z,97486.38
2023-03-29T08:26:11.675Z,97471.06
2023-03-29T08:36:14.104Z,97465.44
2023-03-29T08:46:34.585Z,97474.63
2023-03-29T08:56:40.895Z,97469.28
2023-03-29T09:06:43.385Z,97464.69
2023-03-29T09:16:59.866Z,97476.91
2023-03-29T09:27:14.707Z,97481.38
2023-03-29T09:37:32.274Z,97476.53
2023-03-29T09:47:48.025Z,97468.16
2023-03-29T09:57:50.580Z,97447.63
2023-03-29T10:07:57.860Z,97442.06
2023-03-29T10:18:06.027Z,97427.03
2023-03-29T10:28:13.742Z,97436.84
2023-03-29T10:38:19.461Z,97429.31
2023-03-29T10:48:30.125Z,97438.84
2023-03-29T10:59:01.604Z,97414.72
2023-03-29T11:09:42.553Z,97427.41
2023-03-29T11:20:23.498Z,97404.97
2023-03-29T11:30:35.474Z,97394.25
2023-03-29T11:40:46.854Z,97389.72
2023-03-29T11:50:59.007Z,97370.16
2023-03-29T12:01:09.518Z,97363.81
2023-03-29T12:11:18.805Z,97343.22
2023-03-29T12:21:23.376Z,97352.38
2023-03-29T12:31:37.746Z,97327.16
2023-03-29T12:41:41.895Z,97323.97
2023-03-29T12:51:44.345Z,97328.81
2023-03-29T13:02:22.324Z,97342.91
2023-03-29T13:12:36.086Z,97333.81
2023-03-29T13:22:52.506Z,97329.69
2023-03-29T13:33:24.463Z,97336.66
2023-03-29T13:43:46.158Z,97328.41
2023-03-29T13:54:03.915Z,97339.06
2023-03-29T14:04:12.733Z,97315.22
2023-03-29T14:14:15.464Z,97297.63
2023-03-29T14:24:28.192Z,97280.09
2023-03-29T14:34:30.777Z,97267.69
2023-03-29T14:44:34.970Z,97258.22
2023-03-29T14:54:38.259Z,97267.69
2023-03-29T15:04:41.732Z,97276.63
2023-03-29T15:14:44.198Z,97260.78
2023-03-29T15:24:49.051Z,97263.06
2023-03-29T15:35:08.129Z,97254.00
2023-03-29T15:45:18.902Z,97247.38
2023-03-29T15:55:21.271Z,97245.91
2023-03-29T16:05:23.856Z,97247.84
2023-03-29T16:15:27.456Z,97245.88
2023-03-29T16:25:30.082Z,97247.09
2023-03-29T16:35:34.559Z,97230.72
2023-03-29T16:45:37.374Z,97217.78
2023-03-29T16:55:40.615Z,97206.19
2023-03-29T17:05:51.057Z,97201.41
2023-03-29T17:15:55.043Z,97197.13
2023-03-29T17:25:57.821Z,97202.50
2023-03-29T17:36:00.636Z,97199.94
2023-03-29T17:46:03.589Z,97193.84
2023-03-29T17:56:07.363Z,97201.00
2023-03-29T18:06:09.765Z,97211.72
2023-03-29T18:16:12.407Z,97218.75
2023-03-29T18:26:16.197Z,97211.59
2023-03-29T18:36:18.638Z,97209.88
2023-03-29T18:46:21.895Z,97220.78
2023-03-29T18:56:24.891Z,97209.72
2023-03-29T19:06:27.787Z,97193.25
2023-03-29T19:16:30.571Z,97197.94
2023-03-29T19:26:33.686Z,97199.56
2023-03-29T19:36:36.612Z,97212.63
2023-03-29T19:46:39.169Z,97207.50
2023-03-29T19:56:43.134Z,97194.19
2023-03-29T20:06:46.626Z,97192.78
2023-03-29T20:16:51.146Z,97182.25
2023-03-29T20:26:54.173Z,97171.59
2023-03-29T20:40:13.737Z,97159.66
2023-03-29T20:50:19.173Z,97150.28
2023-03-29T21:00:22.681Z,97139.94
2023-03-29T21:10:26.670Z,97148.84
2023-03-29T21:20:29.095Z,97136.41
2023-03-29T21:30:32.453Z,97123.59
2023-03-29T21:40:36.415Z,97115.63
2023-03-29T21:50:39.128Z,97106.28
2023-03-29T22:00:42.373Z,97090.13
2023-03-29T22:10:45.088Z,97082.81
2023-03-29T22:20:48.874Z,97071.69
2023-03-29T22:30:51.962Z,97055.44
2023-03-29T22:40:55.774Z,97057.13
2023-03-29T22:50:58.752Z,97053.84
2023-03-29T23:01:02.201Z,97045.44
2023-03-29T23:11:05.511Z,97045.38
2023-03-29T23:21:09.762Z,97029.81
2023-03-29T23:31:18.613Z,97036.44
2023-03-29T23:41:21.276Z,97037.50
2023-03-29T23:51:28.608Z,97034.22
